createdAt,value
2023-04-11T00:01:51.371Z,50.31
2023-04-11T00:04:39.247Z,50.70
2023-04-11T00:07:25.363Z,50.79
2023-04-11T00:10:10.901Z,51.29
2023-04-11T00:12:56.731Z,51.71
2023-04-11T00:15:43.225Z,51.57
2023-04-11T00:18:31.276Z,51.43
2023-04-11T00:21:17.543Z,51.84
2023-04-11T00:24:03.252Z,51.68
2023-04-11T00:26:48.284Z,52.32
2023-04-11T00:29:34.135Z,52.22
2023-04-11T00:32:19.131Z,51.71
2023-04-11T00:35:05.610Z,52.36
2023-04-11T00:37:56.015Z,51.95
2023-04-11T00:40:41.755Z,52.24
2023-04-11T00:43:27.386Z,52.35
2023-04-11T00:46:13.844Z,52.02
2023-04-11T00:49:20.765Z,52.41
2023-04-11T00:52:13.743Z,52.48
2023-04-11T00:55:02.511Z,52.67
2023-04-11T00:57:48.107Z,52.68
2023-04-11T01:00:35.699Z,52.65
2023-04-11T01:03:24.455Z,52.34
2023-04-11T01:06:13.316Z,52.67
2023-04-11T01:08:58.865Z,52.78
2023-04-11T01:11:44.391Z,52.83
2023-04-11T01:14:29.976Z,52.79
2023-04-11T01:17:15.946Z,52.65
2023-04-11T01:20:02.072Z,53.01
2023-04-11T01:22:49.489Z,52.95
2023-04-11T01:25:34.982Z,52.92
2023-04-11T01:28:21.431Z,52.81
2023-04-11T01:31:08.351Z,53.11
2023-04-11T01:33:54.320Z,53.26
2023-04-11T01:36:41.813Z,53.50
2023-04-11T01:39:27.248Z,53.26
2023-04-11T01:42:13.919Z,53.05
2023-04-11T01:45:00.167Z,53.54
2023-04-11T01:47:45.737Z,53.23
2023-04-11T01:50:31.699Z,53.57
2023-04-11T01:53:17.367Z,52.98
2023-04-11T01:56:04.833Z,53.00
2023-04-11T01:58:50.664Z,52.98
2023-04-11T02:01:36.467Z,53.14
2023-04-11T02:04:21.925Z,53.23
2023-04-11T02:07:07.242Z,53.44
2023-04-11T02:09:52.503Z,53.33
2023-04-11T02:12:37.966Z,53.16
2023-04-11T02:15:25.158Z,53.45
2023-04-11T02:18:11.185Z,53.29
2023-04-11T02:20:56.631Z,53.39
2023-04-11T02:23:42.049Z,53.52
2023-04-11T02:26:27.391Z,53.67
2023-04-11T02:29:14.457Z,53.47
2023-04-11T02:32:00.312Z,53.85
2023-04-11T02:34:45.760Z,54.35
2023-04-11T02:37:31.486Z,53.70
2023-04-11T02:40:16.952Z,53.89
2023-04-11T02:43:02.361Z,54.09
2023-04-11T02:45:49.746Z,53.39
2023-04-11T02:48:35.044Z,53.90
2023-04-11T02:51:20.593Z,54.32
2023-04-11T02:54:06.214Z,53.69
2023-04-11T02:56:55.832Z,53.67
2023-04-11T02:59:41.119Z,53.65
2023-04-11T03:02:26.647Z,53.40
2023-04-11T03:05:11.918Z,53.26
2023-04-11T03:07:58.864Z,53.74
2023-04-11T03:10:46.623Z,53.48
2023-04-11T03:13:33.589Z,53.21
2023-04-11T03:16:19.838Z,53.82
2023-04-11T03:19:05.846Z,53.50
2023-04-11T03:21:51.266Z,53.75
2023-04-11T03:24:39.334Z,53.63
2023-04-11T03:27:24.618Z,53.41
2023-04-11T03:30:15.218Z,53.51
2023-04-11T03:33:04.000Z,53.60
2023-04-11T03:35:50.095Z,53.26
2023-04-11T03:38:35.561Z,53.47
2023-04-11T03:41:20.636Z,53.39
2023-04-11T03:44:06.363Z,53.47
2023-04-11T03:46:51.831Z,53.71
2023-04-11T03:49:37.248Z,54.33
2023-04-11T03:52:23.183Z,54.59
2023-04-11T03:55:09.641Z,55.13
2023-04-11T03:57:54.977Z,56.00
2023-04-11T04:00:41.273Z,56.20
2023-04-11T04:03:28.276Z,56.95
2023-04-11T04:06:14.681Z,56.72
2023-04-11T04:08:59.974Z,56.78
2023-04-11T04:11:50.603Z,57.17
2023-04-11T04:14:39.032Z,58.30
2023-04-11T04:17:24.790Z,58.02
2023-04-11T04:20:11.010Z,58.46
2023-04-11T04:22:58.039Z,59.14
2023-04-11T04:25:52.191Z,60.24
2023-04-11T04:28:45.856Z,61.88
2023-04-11T04:31:33.966Z,63.45
2023-04-11T04:34:24.472Z,64.38
2023-04-11T04:37:09.973Z,66.26
2023-04-11T04:40:09.050Z,69.63
2023-04-11T04:43:02.834Z,72.53
2023-04-11T04:45:56.161Z,74.96
2023-04-11T04:48:46.048Z,76.39
2023-04-11T04:51:31.568Z,77.29
2023-04-11T04:54:19.282Z,78.79
2023-04-11T04:57:04.708Z,78.59
2023-04-11T04:59:50.960Z,78.97
2023-04-11T05:02:37.965Z,79.17
2023-04-11T05:05:23.765Z,79.71
2023-04-11T05:08:09.281Z,79.25
2023-04-11T05:10:56.538Z,80.09
2023-04-11T05:13:42.528Z,80.75
2023-04-11T05:16:28.005Z,81.04
2023-04-11T05:19:14.108Z,81.42
2023-04-11T05:22:03.913Z,81.51
2023-04-11T05:24:52.443Z,82.54
2023-04-11T05:27:37.826Z,82.33
2023-04-11T05:30:23.781Z,81.97
2023-04-11T05:33:09.610Z,82.89
2023-04-11T05:35:54.886Z,84.29
2023-04-11T05:38:41.260Z,84.81
2023-04-11T05:41:26.621Z,85.33
2023-04-11T05:44:11.684Z,86.22
2023-04-11T05:46:57.055Z,86.62
2023-04-11T05:49:42.347Z,87.64
2023-04-11T05:52:27.735Z,88.54
2023-04-11T05:55:13.931Z,89.39
2023-04-11T05:57:59.305Z,89.10
2023-04-11T06:00:45.977Z,89.88
2023-04-11T06:03:31.104Z,90.44
2023-04-11T06:06:16.820Z,90.50
2023-04-11T06:09:02.395Z,90.34
2023-04-11T06:11:47.753Z,89.37
2023-04-11T06:14:33.288Z,89.54
2023-04-11T06:17:18.490Z,89.36
2023-04-11T06:20:06.232Z,88.99
2023-04-11T06:22:51.718Z,88.17
2023-04-11T06:25:37.211Z,88.34
2023-04-11T06:28:22.737Z,88.07
2023-04-11T06:31:09.374Z,88.66
2023-04-11T06:33:55.763Z,88.80
2023-04-11T06:36:42.618Z,88.88
2023-04-11T06:39:27.872Z,89.24
2023-04-11T06:42:13.054Z,89.05
2023-04-11T06:45:02.143Z,89.22
2023-04-11T06:47:47.339Z,89.30
2023-04-11T06:50:32.643Z,89.69
2023-04-11T06:53:17.960Z,89.58
2023-04-11T06:56:03.381Z,89.51
2023-04-11T06:58:48.675Z,89.41
2023-04-11T07:01:37.588Z,88.84
2023-04-11T07:04:23.139Z,89.11
2023-04-11T07:07:08.792Z,89.51
2023-04-11T07:09:53.741Z,89.26
2023-04-11T07:12:39.083Z,89.47
2023-04-11T07:15:24.679Z,89.39
2023-04-11T07:18:09.824Z,89.06
2023-04-11T07:20:55.416Z,88.45
2023-04-11T07:23:41.567Z,87.73
2023-04-11T07:26:31.921Z,87.83
2023-04-11T07:29:17.332Z,87.68
2023-04-11T07:32:03.251Z,87.41
2023-04-11T07:34:52.080Z,87.20
2023-04-11T07:37:38.338Z,87.29
2023-04-11T07:40:24.382Z,87.63
2023-04-11T07:43:09.538Z,87.71
2023-04-11T07:45:56.780Z,86.45
2023-04-11T07:48:43.004Z,86.50
2023-04-11T07:51:28.409Z,85.93
2023-04-11T07:54:13.478Z,84.88
2023-04-11T07:56:59.256Z,84.63
2023-04-11T07:59:49.359Z,83.90
2023-04-11T08:02:35.645Z,83.32
2023-04-11T08:05:24.501Z,83.76
2023-04-11T08:08:10.143Z,84.46
2023-04-11T08:10:55.762Z,84.18
2023-04-11T08:13:41.944Z,84.80
2023-04-11T08:16:34.058Z,84.62
2023-04-11T08:19:24.477Z,84.67
2023-04-11T08:22:10.514Z,84.91
2023-04-11T08:24:56.259Z,86.51
2023-04-11T08:27:41.806Z,86.57
2023-04-11T08:30:27.258Z,86.52
2023-04-11T08:33:12.822Z,82.58
2023-04-11T08:35:58.198Z,80.03
2023-04-11T08:38:43.250Z,80.52
2023-04-11T08:41:35.287Z,75.88
2023-04-11T08:44:21.234Z,75.44
2023-04-11T08:47:07.487Z,76.02
2023-04-11T08:49:56.645Z,77.18
2023-04-11T08:52:45.203Z,74.27
2023-04-11T08:55:31.254Z,73.43
2023-04-11T08:58:17.172Z,73.63
2023-04-11T09:01:26.092Z,74.07
2023-04-11T09:04:13.365Z,75.09
2023-04-11T09:07:01.009Z,75.17
2023-04-11T09:09:46.432Z,74.12
2023-04-11T09:12:31.623Z,73.23
2023-04-11T09:15:31.572Z,73.22
2023-04-11T09:18:38.489Z,72.42
2023-04-11T09:21:24.201Z,70.50
2023-04-11T09:24:16.327Z,70.36
2023-04-11T09:27:18.211Z,68.90
2023-04-11T09:30:05.788Z,68.77
2023-04-11T09:32:54.571Z,68.82
2023-04-11T09:35:40.086Z,68.10
2023-04-11T09:38:34.397Z,65.44
2023-04-11T09:41:33.492Z,63.93
2023-04-11T09:44:18.661Z,65.70
2023-04-11T09:47:04.831Z,65.34
2023-04-11T09:49:50.343Z,62.81
2023-04-11T09:52:39.469Z,61.76
2023-04-11T09:55:25.928Z,61.71
2023-04-11T09:58:14.914Z,62.66
2023-04-11T10:01:01.311Z,64.11
2023-04-11T10:03:50.483Z,60.32
2023-04-11T10:07:07.000Z,61.49
2023-04-11T10:09:52.208Z,60.40
2023-04-11T10:12:37.428Z,61.42
2023-04-11T10:15:22.931Z,61.78
2023-04-11T10:18:10.217Z,60.09
2023-04-11T10:20:55.810Z,62.05
2023-04-11T10:24:09.608Z,57.95
2023-04-11T10:26:57.815Z,57.98
2023-04-11T10:29:48.355Z,56.31
2023-04-11T10:32:35.112Z,55.30
2023-04-11T10:35:24.605Z,56.58
2023-04-11T10:38:43.978Z,56.26
2023-04-11T10:41:32.693Z,58.15
2023-04-11T10:44:21.425Z,56.78
2023-04-11T10:47:17.616Z,56.37
2023-04-11T10:50:03.481Z,57.49
2023-04-11T10:52:48.681Z,56.68
2023-04-11T10:55:54.213Z,56.63
2023-04-11T10:58:39.811Z,57.61
2023-04-11T11:01:37.080Z,58.72
2023-04-11T11:04:32.348Z,58.28
2023-04-11T11:07:17.722Z,59.00
2023-04-11T11:10:03.101Z,60.44
2023-04-11T11:12:53.642Z,59.69
2023-04-11T11:15:39.062Z,58.89
2023-04-11T11:18:24.725Z,59.18
2023-04-11T11:21:14.135Z,58.31
2023-04-11T11:24:05.910Z,57.38
2023-04-11T11:26:51.653Z,57.16
2023-04-11T11:29:38.011Z,56.52
2023-04-11T11:32:30.214Z,53.66
2023-04-11T11:35:16.016Z,54.02
2023-04-11T11:38:01.567Z,53.93
2023-04-11T11:40:48.534Z,53.77
2023-04-11T11:43:35.903Z,52.81
2023-04-11T11:46:23.657Z,53.19
2023-04-11T11:49:11.821Z,52.79
2023-04-11T11:51:57.477Z,51.53
2023-04-11T11:54:46.405Z,50.19
2023-04-11T11:57:35.764Z,50.03
2023-04-11T12:00:26.234Z,49.37
2023-04-11T12:03:11.997Z,50.80
2023-04-11T12:06:00.195Z,50.79
2023-04-11T12:08:50.127Z,51.96
2023-04-11T12:11:44.536Z,50.01
2023-04-11T12:14:29.812Z,50.88
2023-04-11T12:17:15.489Z,52.14
2023-04-11T12:20:01.897Z,53.84
2023-04-11T12:22:47.063Z,56.06
2023-04-11T12:25:32.435Z,54.04
2023-04-11T12:28:17.833Z,53.85
2023-04-11T12:31:03.463Z,53.78
2023-04-11T12:33:49.356Z,54.48
2023-04-11T12:36:36.649Z,54.88
2023-04-11T12:39:22.309Z,55.01
2023-04-11T12:42:11.720Z,55.27
2023-04-11T12:45:01.209Z,55.73
2023-04-11T12:47:47.769Z,55.55
2023-04-11T12:50:32.917Z,55.97
2023-04-11T12:53:18.492Z,55.08
2023-04-11T12:56:04.125Z,56.38
2023-04-11T12:58:49.543Z,55.48
2023-04-11T13:01:46.686Z,57.85
2023-04-11T13:04:36.988Z,59.92
2023-04-11T13:07:25.647Z,60.05
2023-04-11T13:10:17.058Z,58.61
2023-04-11T13:13:11.621Z,55.41
2023-04-11T13:16:02.535Z,52.28
2023-04-11T13:18:49.056Z,53.86
2023-04-11T13:21:34.326Z,54.66
2023-04-11T13:24:19.729Z,59.05
2023-04-11T13:27:05.066Z,61.98
2023-04-11T13:29:50.085Z,65.05
2023-04-11T13:32:36.059Z,67.33
2023-04-11T13:35:21.690Z,69.06
2023-04-11T13:38:07.075Z,69.25
2023-04-11T13:40:52.507Z,68.56
2023-04-11T13:43:37.900Z,67.99
2023-04-11T13:46:23.561Z,67.35
2023-04-11T13:49:09.126Z,68.27
2023-04-11T13:51:54.755Z,66.22
2023-04-11T13:54:40.508Z,66.26
2023-04-11T13:57:25.651Z,68.45
2023-04-11T14:00:11.800Z,69.74
2023-04-11T14:02:57.484Z,71.70
2023-04-11T14:05:45.522Z,75.56
2023-04-11T14:08:30.902Z,79.67
2023-04-11T14:11:16.381Z,84.10
2023-04-11T14:14:01.618Z,89.15
2023-04-11T14:16:47.203Z,90.52
2023-04-11T14:19:32.764Z,93.46
2023-04-11T14:22:18.067Z,95.81
2023-04-11T14:25:05.297Z,98.94
2023-04-11T14:27:50.641Z,100.00
2023-04-11T14:30:36.040Z,100.00
2023-04-11T14:33:21.641Z,100.00
2023-04-11T14:36:07.233Z,100.00
2023-04-11T14:38:52.488Z,100.00
2023-04-11T14:41:37.759Z,99.18
2023-04-11T14:44:23.205Z,100.00
2023-04-11T14:47:08.758Z,100.00
2023-04-11T14:49:56.919Z,100.00
2023-04-11T14:52:42.169Z,100.00
2023-04-11T14:55:27.380Z,99.75
2023-04-11T14:58:12.633Z,100.00
2023-04-11T15:01:00.970Z,99.10
2023-04-11T15:03:46.661Z,96.91
2023-04-11T15:06:33.000Z,95.62
2023-04-11T15:09:23.917Z,94.67
2023-04-11T15:12:09.120Z,92.35
2023-04-11T15:14:54.659Z,90.79
2023-04-11T15:17:46.894Z,92.02
2023-04-11T15:20:34.924Z,91.16
2023-04-11T15:23:21.417Z,85.38
2023-04-11T15:26:10.483Z,84.90
2023-04-11T15:28:57.924Z,80.32
2023-04-11T15:31:43.056Z,77.50
2023-04-11T15:34:28.551Z,75.98
2023-04-11T15:37:14.098Z,73.83
2023-04-11T15:40:05.896Z,74.39
2023-04-11T15:42:51.006Z,74.82
2023-04-11T15:45:37.997Z,74.68
2023-04-11T15:48:23.244Z,76.06
2023-04-11T15:51:09.973Z,77.13
2023-04-11T15:53:55.539Z,76.75
2023-04-11T15:56:40.966Z,73.93
2023-04-11T15:59:26.809Z,72.48
2023-04-11T16:02:12.208Z,74.76
2023-04-11T16:04:57.569Z,75.84
2023-04-11T16:07:46.416Z,74.07
2023-04-11T16:10:32.744Z,73.46
2023-04-11T16:13:18.111Z,78.90
2023-04-11T16:16:03.820Z,85.66
2023-04-11T16:18:49.105Z,92.16
2023-04-11T16:21:34.673Z,85.70
2023-04-11T16:24:19.825Z,85.98
2023-04-11T16:27:05.662Z,87.63
2023-04-11T16:29:52.982Z,89.78
2023-04-11T16:32:38.555Z,85.96
2023-04-11T16:35:24.599Z,86.36
2023-04-11T16:38:10.472Z,87.64
2023-04-11T16:41:00.245Z,88.25
2023-04-11T16:43:45.711Z,87.95
2023-04-11T16:46:34.116Z,81.17
2023-04-11T16:49:46.964Z,77.31
2023-04-11T16:52:36.473Z,77.42
2023-04-11T16:55:30.947Z,79.76
2023-04-11T16:58:19.072Z,85.21
2023-04-11T17:01:10.518Z,79.50
2023-04-11T17:03:56.368Z,85.35
2023-04-11T17:06:42.357Z,82.90
2023-04-11T17:09:27.630Z,82.88
2023-04-11T17:12:13.086Z,81.23
2023-04-11T17:15:01.640Z,82.69
2023-04-11T17:17:46.975Z,81.27
2023-04-11T17:20:32.104Z,83.42
2023-04-11T17:23:17.674Z,80.87
2023-04-11T17:26:04.838Z,82.54
2023-04-11T17:28:49.927Z,83.59
2023-04-11T17:31:35.220Z,80.88
2023-04-11T17:34:20.687Z,80.21
2023-04-11T17:37:06.427Z,80.39
2023-04-11T17:39:51.856Z,81.65
2023-04-11T17:42:37.264Z,77.98
2023-04-11T17:45:23.276Z,78.73
2023-04-11T17:48:09.012Z,77.64
2023-04-11T17:50:55.734Z,76.88
2023-04-11T17:53:41.741Z,76.50
2023-04-11T17:56:27.004Z,75.78
2023-04-11T17:59:13.538Z,75.86
2023-04-11T18:01:59.386Z,76.79
2023-04-11T18:04:45.164Z,76.22
2023-04-11T18:07:30.724Z,77.23
2023-04-11T18:10:21.917Z,75.64
2023-04-11T18:13:07.269Z,75.54
2023-04-11T18:15:52.752Z,75.44
2023-04-11T18:18:37.807Z,75.60
2023-04-11T18:21:23.345Z,76.00
2023-04-11T18:24:08.946Z,75.16
2023-04-11T18:26:54.394Z,74.65
2023-04-11T18:29:39.615Z,74.87
2023-04-11T18:32:27.818Z,74.93
2023-04-11T18:35:15.047Z,75.60
2023-04-11T18:38:00.521Z,75.48
2023-04-11T18:40:46.223Z,74.71
2023-04-11T18:43:31.834Z,74.99
2023-04-11T18:46:17.171Z,76.19
2023-04-11T18:49:04.777Z,76.63
2023-04-11T18:51:52.723Z,77.15
2023-04-11T18:54:38.220Z,76.38
2023-04-11T18:57:26.552Z,75.91
2023-04-11T19:00:18.595Z,76.77
2023-04-11T19:03:05.129Z,77.30
2023-04-11T19:05:51.659Z,77.56
2023-04-11T19:08:37.632Z,77.69
2023-04-11T19:11:22.895Z,78.27
2023-04-11T19:14:09.556Z,77.70
2023-04-11T19:16:56.058Z,77.85
2023-04-11T19:19:43.178Z,78.32
2023-04-11T19:22:28.753Z,77.53
2023-04-11T19:25:14.648Z,75.92
2023-04-11T19:28:41.260Z,76.15
2023-04-11T19:31:32.698Z,75.13
2023-04-11T19:34:17.874Z,76.91
2023-04-11T19:37:03.551Z,76.94
2023-04-11T19:39:49.158Z,76.87
2023-04-11T19:42:37.021Z,76.74
2023-04-11T19:45:22.871Z,78.09
2023-04-11T19:48:08.074Z,78.34
2023-04-11T19:50:53.185Z,77.93
2023-04-11T19:53:38.747Z,76.46
2023-04-11T19:56:23.884Z,78.27
2023-04-11T19:59:09.242Z,77.37
2023-04-11T20:01:54.811Z,77.61
2023-04-11T20:04:41.855Z,76.30
2023-04-11T20:07:27.526Z,77.22
2023-04-11T20:10:14.216Z,77.34
2023-04-11T20:12:59.710Z,77.29
2023-04-11T20:15:45.134Z,76.42
2023-04-11T20:18:30.543Z,76.59
2023-04-11T20:21:15.664Z,77.18
2023-04-11T20:24:02.192Z,77.26
2023-04-11T20:26:47.356Z,77.06
2023-04-11T20:29:32.985Z,78.55
2023-04-11T20:32:18.402Z,78.83
2023-04-11T20:35:04.048Z,78.92
2023-04-11T20:37:50.054Z,79.19
2023-04-11T20:40:35.236Z,77.26
2023-04-11T20:43:20.379Z,78.27
2023-04-11T20:46:08.279Z,78.12
2023-04-11T20:48:54.564Z,78.39
2023-04-11T20:51:39.836Z,78.36
2023-04-11T20:54:26.257Z,78.43
2023-04-11T20:57:11.683Z,77.98
2023-04-11T20:59:58.047Z,78.81
2023-04-11T21:02:45.735Z,79.74
2023-04-11T21:05:31.126Z,79.08
2023-04-11T21:08:16.272Z,80.03
2023-04-11T21:11:01.943Z,79.41
2023-04-11T21:13:49.037Z,79.20
2023-04-11T21:16:34.428Z,80.18
2023-04-11T21:19:19.500Z,80.15
2023-04-11T21:22:05.727Z,79.22
2023-04-11T21:24:51.235Z,79.34
2023-04-11T21:27:36.541Z,78.76
2023-04-11T21:30:22.100Z,78.94
2023-04-11T21:33:07.307Z,79.46
2023-04-11T21:35:54.238Z,79.86
2023-04-11T21:38:39.546Z,79.98
2023-04-11T21:41:24.889Z,80.42
2023-04-11T21:44:10.441Z,80.08
2023-04-11T21:46:55.964Z,80.56
2023-04-11T21:49:41.388Z,80.23
2023-04-11T21:52:26.692Z,80.08
2023-04-11T21:55:12.871Z,80.49
2023-04-11T21:57:58.411Z,80.29
2023-04-11T22:00:43.745Z,80.77
2023-04-11T22:03:29.563Z,80.18
2023-04-11T22:06:14.947Z,80.24
2023-04-11T22:09:01.136Z,80.89
2023-04-11T22:11:46.706Z,80.57
2023-04-11T22:14:31.692Z,80.68
2023-04-11T22:17:17.675Z,80.30
2023-04-11T22:20:06.586Z,80.60
2023-04-11T22:22:52.006Z,80.44
2023-04-11T22:25:37.318Z,80.48
2023-04-11T22:28:22.577Z,80.75
2023-04-11T22:31:09.615Z,80.60
2023-04-11T22:33:55.141Z,80.04
2023-04-11T22:36:40.686Z,80.25
2023-04-11T22:39:25.855Z,80.07
2023-04-11T22:42:11.598Z,80.01
2023-04-11T22:44:56.907Z,80.19
2023-04-11T22:47:45.606Z,80.39
2023-04-11T22:50:37.831Z,80.38
2023-04-11T22:53:24.927Z,79.86
2023-04-11T22:56:10.751Z,80.57
2023-04-11T22:58:55.921Z,80.40
2023-04-11T23:01:41.496Z,80.83
2023-04-11T23:04:26.757Z,80.91
2023-04-11T23:07:12.110Z,80.89
2023-04-11T23:10:01.013Z,81.35
2023-04-11T23:12:47.341Z,80.86
2023-04-11T23:15:32.820Z,80.95
2023-04-11T23:18:18.725Z,80.13
2023-04-11T23:21:04.734Z,80.99
2023-04-11T23:23:50.072Z,80.79
2023-04-11T23:26:35.214Z,80.23
2023-04-11T23:29:20.924Z,80.46
2023-04-11T23:32:07.429Z,79.94
2023-04-11T23:34:52.569Z,80.23
2023-04-11T23:37:38.094Z,80.03
2023-04-11T23:40:23.458Z,79.65
2023-04-11T23:43:09.216Z,79.67
2023-04-11T23:45:54.461Z,79.88
2023-04-11T23:48:39.714Z,79.29
2023-04-11T23:51:25.135Z,79.57
2023-04-11T23:54:10.663Z,79.80
2023-04-11T23:56:57.155Z,80.34
2023-04-11T23:59:42.431Z,80.33
